Time;durP1;ratioP1;P1;durP2;ratioP2;P2;SDS_P1;SDS_P2;PMS_P1;PMS_P2;Temp;Humidity;BMP_temperature;BMP_pressure;BME280_temperature;BME280_humidity;BME280_pressure;Samples;Min_cycle;Max_cycle;Signal;HPM_P1;HPM_P2
2023/06/17 00:00:25;;;;;;;7.45;5.00;;;21.60;79.10;;;;;;5091097;28;20047;-68
2023/06/17 00:03:29;;;;;;;13.27;6.18;;;21.60;78.80;;;;;;5090980;28;20048;-68
2023/06/17 00:06:33;;;;;;;9.38;5.95;;;21.70;78.60;;;;;;5090837;28;20102;-68
2023/06/17 00:09:40;;;;;;;10.77;5.43;;;21.70;78.50;;;;;;5090657;28;20044;-68
2023/06/17 00:12:44;;;;;;;21.10;6.70;;;21.60;78.80;;;;;;5090949;28;20044;-68
2023/06/17 00:15:53;;;;;;;12.73;7.22;;;21.60;80.50;;;;;;5090886;28;20043;-68
2023/06/17 00:18:57;;;;;;;12.52;7.18;;;21.60;79.50;;;;;;5090725;28;20043;-68
2023/06/17 00:22:01;;;;;;;13.52;7.22;;;21.60;79.40;;;;;;5091010;28;20051;-68
2023/06/17 00:25:05;;;;;;;13.95;7.90;;;21.60;78.50;;;;;;5090601;28;20035;-66
2023/06/17 00:28:09;;;;;;;17.25;6.70;;;21.60;79.40;;;;;;5090541;28;20043;-69
2023/06/17 00:31:13;;;;;;;21.48;7.10;;;21.50;81.60;;;;;;5093249;28;20309;-67
2023/06/17 00:34:17;;;;;;;14.10;7.13;;;21.40;82.90;;;;;;5094111;28;20047;-68
2023/06/17 00:37:22;;;;;;;12.68;7.53;;;21.30;84.10;;;;;;5094495;28;20043;-68
2023/06/17 00:40:25;;;;;;;12.70;7.03;;;21.20;83.10;;;;;;5093468;28;20506;-68
2023/06/17 00:43:30;;;;;;;13.77;6.93;;;21.10;84.40;;;;;;5093681;28;20059;-68
2023/06/17 00:46:45;;;;;;;15.10;6.97;;;21.00;85.00;;;;;;5094445;28;20102;-68
2023/06/17 00:49:49;;;;;;;11.90;7.13;;;20.90;86.00;;;;;;5094229;28;20055;-68
2023/06/17 00:52:53;;;;;;;13.10;6.65;;;20.70;86.50;;;;;;5094552;28;20479;-68
2023/06/17 00:55:58;;;;;;;15.43;7.25;;;20.60;86.70;;;;;;5094329;28;20059;-67
2023/06/17 00:59:03;;;;;;;8.32;6.25;;;20.60;87.00;;;;;;5093722;28;20171;-67
2023/06/17 01:02:10;;;;;;;13.02;6.70;;;20.60;85.00;;;;;;5094117;28;20032;-68
2023/06/17 01:05:16;;;;;;;10.30;7.03;;;20.60;85.30;;;;;;5093214;28;20035;-68
2023/06/17 01:08:40;;;;;;;11.60;5.88;;;20.60;86.20;;;;;;5092983;28;20051;-69
2023/06/17 01:11:45;;;;;;;9.75;5.80;;;20.70;86.50;;;;;;5093685;28;20051;-69
2023/06/17 01:14:51;;;;;;;8.23;5.70;;;20.80;85.20;;;;;;5093195;28;20040;-69
2023/06/17 01:17:55;;;;;;;10.85;5.75;;;20.80;83.70;;;;;;5093117;28;20046;-69
2023/06/17 01:20:59;;;;;;;12.02;6.22;;;20.90;83.30;;;;;;5093040;28;20058;-66
2023/06/17 01:24:04;;;;;;;14.07;6.00;;;20.90;83.90;;;;;;5093974;28;20135;-68
2023/06/17 01:27:08;;;;;;;10.27;5.93;;;20.80;85.10;;;;;;5094072;28;20032;-68
2023/06/17 01:30:12;;;;;;;11.32;5.75;;;20.70;84.80;;;;;;5093395;28;20051;-67
2023/06/17 01:33:17;;;;;;;10.52;5.93;;;20.60;85.60;;;;;;5092911;28;20197;-67
2023/06/17 01:36:28;;;;;;;6.22;5.07;;;20.40;86.40;;;;;;5093071;28;20043;-68
2023/06/17 01:39:33;;;;;;;7.32;5.80;;;20.30;84.90;;;;;;5093603;28;20059;-68
2023/06/17 01:42:44;;;;;;;10.27;5.53;;;20.20;86.70;;;;;;5092235;28;20051;-68
2023/06/17 01:45:49;;;;;;;9.40;5.90;;;20.10;86.30;;;;;;5092880;28;20051;-67
2023/06/17 01:48:54;;;;;;;9.57;5.43;;;19.90;86.20;;;;;;5092474;28;20035;-67
2023/06/17 01:51:58;;;;;;;7.65;5.30;;;19.80;87.00;;;;;;5093513;28;20051;-67
2023/06/17 01:55:03;;;;;;;7.72;5.65;;;19.80;88.30;;;;;;5092606;28;20039;-67
2023/06/17 01:58:08;;;;;;;8.70;5.53;;;19.70;87.40;;;;;;5092626;28;20384;-67
2023/06/17 02:01:12;;;;;;;9.00;5.38;;;19.60;88.10;;;;;;5093267;28;20028;-68
2023/06/17 02:04:15;;;;;;;8.98;5.97;;;19.60;88.20;;;;;;5092418;28;20048;-68
2023/06/17 02:07:25;;;;;;;11.60;5.97;;;19.50;88.80;;;;;;5092309;28;20472;-68
2023/06/17 02:10:29;;;;;;;9.85;5.70;;;19.50;89.60;;;;;;5091966;28;20043;-68
2023/06/17 02:13:34;;;;;;;8.68;6.05;;;19.50;89.70;;;;;;5092977;28;20043;-68
2023/06/17 02:16:39;;;;;;;9.20;6.20;;;19.50;89.20;;;;;;5092873;28;20048;-68
2023/06/17 02:19:43;;;;;;;10.07;6.38;;;19.40;89.00;;;;;;5092159;28;20375;-68
2023/06/17 02:22:48;;;;;;;9.18;6.53;;;19.40;89.70;;;;;;5091964;28;20043;-68
2023/06/17 02:25:51;;;;;;;7.82;5.97;;;19.40;90.10;;;;;;5092832;28;20532;-68
2023/06/17 02:28:56;;;;;;;8.38;6.03;;;19.40;90.00;;;;;;5092797;28;20051;-68
2023/06/17 02:32:00;;;;;;;10.50;6.13;;;19.40;90.30;;;;;;5091449;28;20047;-68
2023/06/17 02:35:04;;;;;;;8.93;6.15;;;19.30;89.70;;;;;;5091424;28;20615;-68
2023/06/17 02:38:08;;;;;;;11.50;6.40;;;19.20;89.70;;;;;;5091984;28;20040;-68
2023/06/17 02:41:12;;;;;;;11.55;6.30;;;19.10;90.30;;;;;;5091498;28;20050;-66
2023/06/17 02:44:16;;;;;;;9.18;6.00;;;19.10;90.20;;;;;;5091514;28;20051;-67
2023/06/17 02:47:19;;;;;;;10.50;6.35;;;18.90;90.60;;;;;;5092407;28;20049;-67
2023/06/17 02:50:23;;;;;;;7.80;6.40;;;19.00;90.70;;;;;;5091201;28;20510;-67
2023/06/17 02:53:28;;;;;;;8.23;6.10;;;19.10;90.70;;;;;;5090586;28;20032;-68
2023/06/17 02:56:32;;;;;;;8.10;6.40;;;19.00;90.50;;;;;;5091391;28;20039;-67
2023/06/17 02:59:37;;;;;;;9.00;6.47;;;18.80;90.80;;;;;;5091229;28;20048;-68
2023/06/17 03:02:41;;;;;;;10.57;6.28;;;18.80;90.70;;;;;;5091046;28;20047;-68
2023/06/17 03:05:45;;;;;;;9.50;6.80;;;18.80;90.80;;;;;;5091545;28;20062;-68
2023/06/17 03:08:50;;;;;;;7.43;6.20;;;18.80;91.10;;;;;;5090914;28;20040;-68
2023/06/17 03:11:54;;;;;;;9.85;6.28;;;18.70;90.90;;;;;;5091078;28;20047;-68
2023/06/17 03:14:58;;;;;;;8.45;6.00;;;18.70;91.20;;;;;;5090947;28;20182;-68
2023/06/17 03:18:03;;;;;;;8.88;6.25;;;18.70;91.40;;;;;;5091094;28;20048;-69
2023/06/17 03:21:07;;;;;;;8.35;6.53;;;18.70;91.30;;;;;;5090760;28;20040;-68
2023/06/17 03:24:12;;;;;;;11.68;6.70;;;18.60;91.40;;;;;;5090762;28;20036;-68
2023/06/17 03:27:16;;;;;;;11.52;6.75;;;18.60;91.60;;;;;;5090779;28;20411;-68
2023/06/17 03:30:23;;;;;;;9.68;6.13;;;18.60;91.70;;;;;;5090281;28;20055;-68
2023/06/17 03:33:27;;;;;;;18.23;6.70;;;18.60;91.80;;;;;;5090814;28;20059;-67
2023/06/17 03:36:31;;;;;;;16.15;6.75;;;18.60;91.80;;;;;;5091405;28;20058;-68
2023/06/17 03:39:36;;;;;;;11.80;7.03;;;18.50;91.90;;;;;;5090135;28;20047;-68
2023/06/17 03:42:40;;;;;;;17.92;7.60;;;18.40;91.90;;;;;;5090750;28;20055;-69
2023/06/17 03:45:45;;;;;;;10.48;6.85;;;18.40;92.00;;;;;;5090660;28;20047;-67
2023/06/17 03:48:49;;;;;;;10.75;6.95;;;18.30;91.90;;;;;;5090097;28;20046;-68
2023/06/17 03:51:53;;;;;;;14.00;7.22;;;18.10;92.20;;;;;;5091089;28;20063;-67
2023/06/17 03:54:57;;;;;;;11.27;6.72;;;18.10;92.20;;;;;;5091753;28;20043;-68
2023/06/17 03:58:03;;;;;;;13.38;7.38;;;18.00;92.40;;;;;;5090189;28;20396;-69
2023/06/17 04:01:12;;;;;;;12.25;7.07;;;18.00;92.60;;;;;;5090322;28;20051;-68
2023/06/17 04:04:17;;;;;;;12.18;7.40;;;18.10;92.70;;;;;;5090296;28;20055;-67
2023/06/17 04:07:22;;;;;;;10.32;6.90;;;18.30;92.40;;;;;;5090099;28;20039;-68
2023/06/17 04:10:26;;;;;;;12.70;7.20;;;18.30;92.60;;;;;;5090711;28;20494;-68
2023/06/17 04:13:30;;;;;;;10.70;6.95;;;18.50;92.30;;;;;;5090767;28;20043;-69
2023/06/17 04:16:35;;;;;;;13.95;7.47;;;18.60;92.40;;;;;;5090227;28;20043;-69
2023/06/17 04:19:39;;;;;;;10.13;7.18;;;18.70;92.30;;;;;;5091017;28;20499;-69
2023/06/17 04:22:44;;;;;;;13.88;7.05;;;18.80;91.90;;;;;;5090038;28;20479;-68
2023/06/17 04:25:48;;;;;;;11.77;7.03;;;18.70;92.20;;;;;;5090192;28;20420;-69
2023/06/17 04:28:52;;;;;;;15.65;7.60;;;18.80;92.50;;;;;;5089980;28;20106;-69
2023/06/17 04:31:56;;;;;;;12.65;7.25;;;19.00;91.50;;;;;;5089736;28;20396;-69
2023/06/17 04:35:03;;;;;;;11.10;7.93;;;18.90;91.70;;;;;;5090142;28;20070;-69
2023/06/17 04:38:13;;;;;;;9.98;7.13;;;19.00;91.80;;;;;;5090065;28;20106;-68
2023/06/17 04:41:19;;;;;;;14.57;7.93;;;19.30;91.60;;;;;;5089650;28;20036;-69
2023/06/17 04:44:26;;;;;;;13.50;8.13;;;19.70;91.40;;;;;;5089864;28;20055;-67
2023/06/17 04:47:31;;;;;;;20.63;8.20;;;19.80;90.80;;;;;;5089800;28;20035;-67
2023/06/17 04:50:35;;;;;;;18.40;9.18;;;19.90;90.20;;;;;;5089578;28;20506;-69
2023/06/17 04:53:39;;;;;;;25.30;8.18;;;19.90;90.30;;;;;;5090569;28;20059;-68
2023/06/17 04:56:43;;;;;;;17.65;8.07;;;20.00;90.20;;;;;;5089756;28;20058;-69
2023/06/17 04:59:47;;;;;;;14.32;7.50;;;20.20;90.40;;;;;;5089951;28;20047;-68
2023/06/17 05:02:52;;;;;;;18.77;7.40;;;20.40;90.50;;;;;;5089735;28;20502;-68
2023/06/17 05:05:56;;;;;;;13.43;6.68;;;20.70;90.20;;;;;;5089917;28;20039;-68
2023/06/17 05:09:03;;;;;;;17.00;7.20;;;21.00;87.00;;;;;;5089249;28;20556;-68
2023/06/17 05:12:08;;;;;;;26.10;7.90;;;21.40;85.30;;;;;;5089807;28;20238;-68
2023/06/17 05:15:12;;;;;;;16.45;6.50;;;21.70;83.80;;;;;;5089783;28;20039;-68
2023/06/17 05:18:16;;;;;;;23.27;8.70;;;21.90;82.70;;;;;;5093091;28;20047;-68
2023/06/17 05:21:22;;;;;;;14.23;8.15;;;22.10;85.50;;;;;;5093214;28;20047;-69
2023/06/17 05:24:27;;;;;;;15.35;8.13;;;22.10;86.50;;;;;;5093240;28;20042;-69
2023/06/17 05:27:32;;;;;;;18.98;9.10;;;22.30;86.00;;;;;;5093240;28;20039;-68
2023/06/17 05:30:39;;;;;;;16.73;8.15;;;22.40;86.50;;;;;;5092766;28;20047;-68
2023/06/17 05:33:44;;;;;;;16.88;8.35;;;22.50;86.30;;;;;;5093102;28;20051;-70
2023/06/17 05:36:48;;;;;;;20.25;9.23;;;22.70;85.80;;;;;;5093404;28;20043;-69
2023/06/17 05:39:52;;;;;;;19.52;8.20;;;23.00;85.30;;;;;;5093010;28;20039;-72
2023/06/17 05:42:57;;;;;;;24.67;9.60;;;23.30;84.90;;;;;;5092780;28;20039;-72
2023/06/17 05:46:01;;;;;;;14.65;8.73;;;23.30;83.60;;;;;;5093248;28;20051;-73
2023/06/17 05:49:06;;;;;;;14.25;8.75;;;23.20;84.10;;;;;;5092316;28;20043;-72
2023/06/17 05:52:10;;;;;;;18.52;8.40;;;23.20;84.60;;;;;;5093514;28;20051;-72
2023/06/17 05:55:15;;;;;;;21.80;8.77;;;23.50;83.70;;;;;;5092849;28;20062;-73
2023/06/17 05:58:19;;;;;;;19.73;9.02;;;23.90;82.90;;;;;;5092716;28;20054;-71
2023/06/17 06:01:36;;;;;;;14.20;7.20;;;24.10;81.70;;;;;;5092715;28;20042;-74
2023/06/17 06:04:40;;;;;;;13.02;6.97;;;24.10;79.20;;;;;;5092364;28;20495;-72
2023/06/17 06:07:44;;;;;;;15.05;6.90;;;24.40;79.00;;;;;;5092962;28;20055;-72
2023/06/17 06:10:48;;;;;;;21.85;8.27;;;24.80;78.20;;;;;;5092976;28;20055;-72
2023/06/17 06:13:52;;;;;;;11.77;7.13;;;25.10;77.60;;;;;;5092103;28;20043;-71
2023/06/17 06:16:56;;;;;;;11.23;6.60;;;25.40;77.00;;;;;;5092056;28;20050;-73
2023/06/17 06:20:00;;;;;;;15.82;6.90;;;25.60;76.00;;;;;;5091998;28;20443;-78
2023/06/17 06:23:04;;;;;;;11.00;7.18;;;25.50;75.80;;;;;;5092274;28;20051;-75
2023/06/17 06:26:09;;;;;;;13.32;7.22;;;25.50;75.10;;;;;;5092755;28;20106;-72
2023/06/17 06:29:14;;;;;;;13.38;6.95;;;25.60;75.40;;;;;;5091901;28;20515;-76
2023/06/17 06:32:19;;;;;;;14.32;6.85;;;25.70;74.00;;;;;;5091790;28;20047;-72
2023/06/17 06:35:24;;;;;;;14.32;6.88;;;25.90;74.40;;;;;;5092173;28;20534;-69
2023/06/17 06:38:29;;;;;;;17.65;8.25;;;26.30;73.40;;;;;;5091692;28;20047;-69
2023/06/17 06:41:34;;;;;;;22.17;7.75;;;26.50;73.80;;;;;;5091538;28;20043;-68
2023/06/17 06:44:58;;;;;;;18.42;7.50;;;26.70;73.80;;;;;;5091109;28;20047;-67
2023/06/17 06:48:04;;;;;;;15.90;7.07;;;27.00;72.80;;;;;;5091331;28;20063;-67
2023/06/17 06:51:08;;;;;;;11.93;6.60;;;27.30;73.00;;;;;;5091134;28;20415;-68
2023/06/17 06:54:13;;;;;;;21.65;7.00;;;27.50;72.10;;;;;;5091355;28;20498;-67
2023/06/17 06:57:17;;;;;;;14.07;6.63;;;27.60;71.60;;;;;;5092407;28;20055;-67
2023/06/17 07:00:22;;;;;;;14.82;6.63;;;27.70;71.10;;;;;;5091053;28;20321;-68
2023/06/17 07:03:27;;;;;;;15.95;6.75;;;27.80;70.70;;;;;;5091897;28;20039;-69
2023/06/17 07:06:32;;;;;;;11.98;6.18;;;28.00;71.00;;;;;;5091769;28;20047;-67
2023/06/17 07:09:39;;;;;;;10.77;6.38;;;27.90;71.00;;;;;;5090743;28;20059;-67
2023/06/17 07:12:43;;;;;;;13.85;6.63;;;28.00;70.70;;;;;;5079604;28;20511;-69
2023/06/17 07:15:48;;;;;;;11.35;5.82;;;28.10;70.50;;;;;;5091236;28;20039;-68
2023/06/17 07:18:52;;;;;;;16.98;6.13;;;28.20;70.50;;;;;;5090626;28;20047;-66
2023/06/17 07:21:57;;;;;;;10.18;5.18;;;28.30;69.80;;;;;;5090753;28;20067;-66
2023/06/17 07:25:02;;;;;;;8.40;6.45;;;28.50;68.10;;;;;;5090587;28;20051;-70
2023/06/17 07:28:08;;;;;;;9.90;5.68;;;28.60;69.10;;;;;;5090651;28;20385;-66
2023/06/17 07:31:12;;;;;;;7.68;5.25;;;28.70;70.20;;;;;;5090432;28;20051;-66
2023/06/17 07:34:17;;;;;;;17.02;5.25;;;28.80;69.00;;;;;;5090237;28;20098;-67
2023/06/17 07:37:21;;;;;;;16.27;5.30;;;28.90;68.30;;;;;;5090254;28;20601;-67
2023/06/17 07:40:26;;;;;;;7.95;4.68;;;28.80;67.60;;;;;;5089429;28;20063;-67
2023/06/17 07:43:30;;;;;;;6.90;4.88;;;28.80;67.20;;;;;;5091408;28;20036;-66
2023/06/17 07:46:34;;;;;;;6.65;4.32;;;28.60;65.50;;;;;;5091169;28;20047;-67
2023/06/17 07:49:39;;;;;;;6.38;4.18;;;28.30;66.50;;;;;;5091245;28;20039;-66
2023/06/17 07:52:42;;;;;;;6.10;3.90;;;28.40;66.60;;;;;;5091039;28;20063;-67
2023/06/17 07:55:47;;;;;;;10.40;4.20;;;28.70;65.80;;;;;;5090847;28;20028;-66
2023/06/17 07:58:51;;;;;;;12.15;4.30;;;29.00;66.80;;;;;;5090870;28;20047;-67
2023/06/17 08:01:58;;;;;;;11.05;4.43;;;29.20;66.30;;;;;;5090940;28;20039;-66
2023/06/17 08:05:03;;;;;;;9.75;3.97;;;29.20;65.10;;;;;;5090938;28;20043;-67
2023/06/17 08:08:06;;;;;;;11.00;4.30;;;29.10;64.80;;;;;;5090781;28;20137;-67
2023/06/17 08:11:10;;;;;;;11.38;3.97;;;29.10;65.30;;;;;;5090585;28;20383;-65
2023/06/17 08:14:15;;;;;;;9.32;3.92;;;29.20;65.80;;;;;;5091223;28;20047;-66
2023/06/17 08:17:19;;;;;;;5.18;3.35;;;29.30;64.50;;;;;;5091180;28;20535;-66
2023/06/17 08:20:24;;;;;;;9.90;3.95;;;29.00;64.10;;;;;;5090759;28;20039;-66
2023/06/17 08:23:28;;;;;;;6.00;3.30;;;28.80;66.50;;;;;;5090730;28;20035;-66
2023/06/17 08:26:32;;;;;;;10.10;3.83;;;29.00;63.90;;;;;;5090734;28;20032;-66
2023/06/17 08:29:36;;;;;;;8.45;4.20;;;28.70;64.30;;;;;;5089585;28;20055;-67
2023/06/17 08:32:42;;;;;;;8.27;4.47;;;28.60;64.70;;;;;;5087939;28;20484;-66
2023/06/17 08:35:46;;;;;;;11.90;3.83;;;28.90;65.40;;;;;;5090304;28;20051;-67
2023/06/17 08:38:50;;;;;;;10.55;4.00;;;28.90;65.40;;;;;;5090312;28;20055;-67
2023/06/17 08:41:54;;;;;;;5.95;4.03;;;29.00;65.30;;;;;;5090305;28;20043;-67
2023/06/17 08:45:00;;;;;;;7.07;3.65;;;29.20;65.00;;;;;;5091029;28;20043;-65
2023/06/17 08:48:05;;;;;;;5.43;3.53;;;29.40;65.10;;;;;;5090643;28;20043;-65
2023/06/17 08:51:09;;;;;;;5.85;3.80;;;29.40;63.90;;;;;;5091321;28;20063;-65
2023/06/17 08:54:14;;;;;;;10.50;4.57;;;29.40;65.40;;;;;;5094703;28;20384;-66
2023/06/17 08:57:18;;;;;;;8.88;3.67;;;29.50;64.10;;;;;;5094540;28;20051;-66
2023/06/17 09:00:22;;;;;;;6.28;3.70;;;29.30;64.10;;;;;;5094306;28;20040;-66
2023/06/17 09:03:26;;;;;;;7.50;4.07;;;29.20;65.00;;;;;;5093234;28;20039;-66
2023/06/17 09:06:31;;;;;;;6.05;4.18;;;29.40;65.10;;;;;;5094305;28;20048;-65
2023/06/17 09:09:35;;;;;;;4.80;3.67;;;29.60;66.20;;;;;;5093809;28;20060;-65
2023/06/17 09:12:40;;;;;;;8.77;4.10;;;29.80;66.10;;;;;;5093836;28;20421;-66
2023/06/17 09:15:43;;;;;;;8.68;4.05;;;29.90;65.40;;;;;;5093983;28;20391;-65
2023/06/17 09:18:47;;;;;;;5.97;4.00;;;30.00;64.90;;;;;;5093932;28;20051;-66
2023/06/17 09:21:53;;;;;;;9.27;5.53;;;30.00;65.00;;;;;;5093900;28;20047;-65
2023/06/17 09:24:58;;;;;;;6.10;4.43;;;30.00;65.60;;;;;;5094335;28;20047;-65
2023/06/17 09:28:02;;;;;;;5.30;3.78;;;30.00;65.20;;;;;;5093134;28;20036;-66
2023/06/17 09:31:06;;;;;;;6.10;4.45;;;30.10;65.70;;;;;;5093634;28;20044;-65
2023/06/17 09:34:10;;;;;;;5.10;4.10;;;30.20;64.40;;;;;;5093763;28;20036;-66
2023/06/17 09:37:15;;;;;;;7.22;4.35;;;30.30;64.20;;;;;;5093435;28;20507;-65
2023/06/17 09:40:20;;;;;;;6.85;3.88;;;30.30;63.90;;;;;;5093530;28;20415;-66
2023/06/17 09:43:26;;;;;;;8.95;4.03;;;30.10;63.90;;;;;;5093444;28;20040;-66
2023/06/17 09:46:35;;;;;;;7.60;4.60;;;30.00;64.00;;;;;;5093398;28;20032;-65
2023/06/17 09:49:39;;;;;;;6.22;4.63;;;29.80;63.40;;;;;;5093094;28;20040;-66
2023/06/17 09:52:43;;;;;;;8.60;4.28;;;29.80;64.80;;;;;;5093261;28;20067;-66
2023/06/17 09:55:49;;;;;;;10.75;5.07;;;29.90;65.30;;;;;;5093499;28;20043;-65
2023/06/17 09:58:56;;;;;;;5.20;4.38;;;30.00;63.50;;;;;;5093463;28;20479;-64
2023/06/17 10:02:00;;;;;;;6.43;4.55;;;30.00;64.20;;;;;;5092595;28;20043;-66
2023/06/17 10:05:05;;;;;;;7.07;4.47;;;30.00;64.80;;;;;;5092999;28;20039;-66
2023/06/17 10:08:10;;;;;;;5.93;4.50;;;30.00;63.50;;;;;;5092840;28;20048;-65
2023/06/17 10:11:18;;;;;;;6.60;4.88;;;30.00;63.90;;;;;;5092961;28;20044;-65
2023/06/17 10:14:30;;;;;;;12.60;4.38;;;30.00;64.80;;;;;;5092850;28;20040;-66
2023/06/17 10:17:37;;;;;;;7.65;4.35;;;30.00;64.60;;;;;;5093220;28;20043;-66
2023/06/17 10:20:43;;;;;;;9.75;6.32;;;29.70;64.10;;;;;;5092595;28;20459;-65
2023/06/17 10:23:47;;;;;;;9.60;4.93;;;29.50;64.60;;;;;;5092586;28;20504;-65
2023/06/17 10:26:52;;;;;;;6.88;4.22;;;29.60;65.40;;;;;;5092532;28;20044;-66
2023/06/17 10:29:59;;;;;;;6.68;4.88;;;29.70;63.40;;;;;;5092813;28;20373;-64
2023/06/17 10:33:04;;;;;;;6.57;4.78;;;29.80;63.70;;;;;;5093129;28;20047;-66
2023/06/17 10:36:10;;;;;;;8.48;4.80;;;29.90;63.50;;;;;;5092769;28;20035;-66
2023/06/17 10:39:13;;;;;;;9.10;4.65;;;29.90;63.50;;;;;;5092515;28;20047;-65
2023/06/17 10:42:24;;;;;;;10.27;4.55;;;29.90;63.70;;;;;;5092227;28;20040;-66
2023/06/17 10:45:32;;;;;;;;;;;29.90;63.30;;;;;;5092744;28;20039;-66
2023/06/17 10:48:36;;;;;;;7.88;5.18;;;29.90;63.70;;;;;;5092343;28;19931;-66
2023/06/17 10:51:48;;;;;;;8.23;4.43;;;29.70;62.40;;;;;;5092180;28;20056;-66
2023/06/17 10:54:54;;;;;;;9.65;4.38;;;29.60;63.00;;;;;;5092157;28;20043;-64
2023/06/17 10:57:58;;;;;;;5.05;4.50;;;29.50;63.20;;;;;;5091027;28;20043;-65
2023/06/17 11:01:05;;;;;;;7.80;4.75;;;29.40;63.80;;;;;;5091785;28;20046;-65
2023/06/17 11:04:09;;;;;;;9.25;4.90;;;29.40;64.10;;;;;;5092068;28;20035;-65
2023/06/17 11:07:13;;;;;;;6.53;4.68;;;29.50;64.60;;;;;;5091780;28;20044;-65
2023/06/17 11:10:24;;;;;;;5.78;4.18;;;29.60;63.60;;;;;;5091602;28;20197;-66
2023/06/17 11:13:28;;;;;;;6.22;4.20;;;29.70;64.10;;;;;;5091309;28;20403;-65
2023/06/17 11:16:32;;;;;;;5.63;4.18;;;29.70;61.60;;;;;;5091835;28;20381;-64
2023/06/17 11:19:36;;;;;;;5.50;4.65;;;29.80;62.00;;;;;;5091898;28;20046;-66
2023/06/17 11:22:40;;;;;;;5.47;4.13;;;29.80;62.70;;;;;;5091864;28;20043;-65
2023/06/17 11:25:45;;;;;;;9.52;4.70;;;29.80;63.40;;;;;;5091705;28;20471;-66
2023/06/17 11:28:50;;;;;;;8.50;4.50;;;29.90;61.30;;;;;;5091514;28;20036;-66
2023/06/17 11:31:58;;;;;;;5.68;4.25;;;29.80;60.60;;;;;;5091622;28;20373;-67
2023/06/17 11:35:03;;;;;;;5.80;4.43;;;29.70;61.00;;;;;;5091450;28;20040;-66
2023/06/17 11:38:08;;;;;;;6.50;4.30;;;29.80;60.90;;;;;;5091804;28;20376;-65
2023/06/17 11:41:12;;;;;;;5.85;4.28;;;29.70;61.00;;;;;;5091716;28;20430;-66
2023/06/17 11:44:16;;;;;;;8.10;4.30;;;29.70;60.70;;;;;;5091326;28;20047;-65
2023/06/17 11:47:35;;;;;;;6.03;4.38;;;29.80;60.70;;;;;;5091499;28;20395;-66
2023/06/17 11:50:39;;;;;;;5.88;4.65;;;29.70;61.40;;;;;;5091444;28;20392;-66
2023/06/17 11:53:48;;;;;;;6.10;4.57;;;29.70;61.50;;;;;;5091361;28;20048;-66
2023/06/17 11:56:54;;;;;;;5.55;4.30;;;29.80;62.40;;;;;;5090944;28;20397;-66
2023/06/17 12:00:04;;;;;;;5.90;4.13;;;29.80;63.30;;;;;;5091308;28;20051;-66
2023/06/17 12:03:15;;;;;;;6.57;4.00;;;29.80;63.30;;;;;;5091378;28;20036;-66
2023/06/17 12:06:20;;;;;;;6.00;4.18;;;29.90;63.60;;;;;;5091291;28;20028;-64
2023/06/17 12:09:24;;;;;;;5.75;4.47;;;29.90;62.80;;;;;;5090724;28;20504;-65
2023/06/17 12:12:32;;;;;;;4.57;4.03;;;29.90;62.30;;;;;;5091059;28;20055;-66
2023/06/17 12:15:36;;;;;;;6.90;4.03;;;29.80;63.50;;;;;;5091226;28;20051;-68
2023/06/17 12:18:48;;;;;;;6.55;5.28;;;29.70;63.30;;;;;;5090883;28;20048;-66
2023/06/17 12:21:52;;;;;;;10.98;6.15;;;29.70;63.20;;;;;;5090924;28;20032;-66
2023/06/17 12:24:56;;;;;;;8.07;4.40;;;29.70;61.20;;;;;;5089743;28;20044;-66
2023/06/17 12:28:03;;;;;;;5.72;4.22;;;29.70;61.40;;;;;;5094682;28;20039;-65
2023/06/17 12:31:08;;;;;;;5.45;4.32;;;29.50;61.70;;;;;;5094181;28;20036;-65
2023/06/17 12:34:12;;;;;;;8.88;4.63;;;29.40;61.40;;;;;;5095056;28;20048;-66
2023/06/17 12:37:23;;;;;;;5.60;4.20;;;29.40;61.10;;;;;;5094678;28;20043;-65
2023/06/17 12:40:27;;;;;;;8.43;3.90;;;29.40;62.30;;;;;;5095013;28;20213;-66
2023/06/17 12:43:31;;;;;;;6.15;4.43;;;29.40;63.20;;;;;;5094556;28;20043;-66
2023/06/17 12:46:36;;;;;;;6.88;4.25;;;29.50;61.50;;;;;;5094582;28;20058;-66
2023/06/17 12:49:40;;;;;;;4.47;3.63;;;29.40;61.80;;;;;;5094735;28;20055;-66
2023/06/17 12:52:44;;;;;;;6.55;4.25;;;29.40;62.60;;;;;;5094304;28;20052;-66
2023/06/17 12:55:48;;;;;;;8.07;4.80;;;29.30;60.50;;;;;;5092406;28;20115;-66
2023/06/17 12:58:51;;;;;;;6.53;4.47;;;29.20;62.30;;;;;;5092856;28;20043;-66
2023/06/17 13:01:56;;;;;;;6.22;4.53;;;29.20;61.40;;;;;;5093060;28;20077;-65
2023/06/17 13:05:00;;;;;;;5.88;4.70;;;29.20;61.20;;;;;;5093830;28;20061;-65
2023/06/17 13:08:04;;;;;;;8.20;5.10;;;29.20;61.80;;;;;;5092797;28;20044;-65
2023/06/17 13:11:08;;;;;;;6.75;3.72;;;29.10;61.50;;;;;;5094202;28;20062;-65
2023/06/17 13:14:12;;;;;;;5.00;3.90;;;29.00;63.30;;;;;;5094232;28;20058;-66
2023/06/17 13:17:16;;;;;;;5.75;4.45;;;29.00;65.70;;;;;;5093959;28;20035;-65
2023/06/17 13:20:20;;;;;;;6.05;4.13;;;29.00;63.60;;;;;;5094010;28;20048;-64
2023/06/17 13:23:24;;;;;;;5.55;4.20;;;29.00;64.00;;;;;;5093595;28;20040;-66
2023/06/17 13:26:29;;;;;;;7.53;4.60;;;29.10;63.10;;;;;;5094011;28;20047;-65
2023/06/17 13:29:33;;;;;;;4.57;3.80;;;29.10;62.90;;;;;;5093806;28;20106;-65
2023/06/17 13:32:37;;;;;;;6.22;4.25;;;29.20;64.10;;;;;;5093802;28;20048;-66
2023/06/17 13:35:41;;;;;;;6.18;4.75;;;29.30;64.80;;;;;;5093708;28;20032;-65
2023/06/17 13:38:45;;;;;;;6.35;4.20;;;29.30;66.70;;;;;;5093362;28;20040;-66
2023/06/17 13:41:49;;;;;;;7.03;4.78;;;29.40;66.60;;;;;;5093701;28;20059;-65
2023/06/17 13:44:53;;;;;;;6.80;4.60;;;29.50;66.90;;;;;;5093805;28;20392;-65
2023/06/17 13:47:57;;;;;;;6.63;4.75;;;29.50;66.50;;;;;;5093697;28;20052;-65
2023/06/17 13:51:05;;;;;;;6.38;4.43;;;29.60;67.60;;;;;;5094307;28;20039;-65
2023/06/17 13:54:09;;;;;;;9.27;5.20;;;29.60;67.60;;;;;;5093564;28;20511;-67
2023/06/17 13:57:13;;;;;;;6.00;4.57;;;29.50;68.30;;;;;;5093533;28;20024;-65
2023/06/17 14:00:17;;;;;;;6.70;4.30;;;29.50;67.50;;;;;;5093341;28;20040;-65
2023/06/17 14:03:21;;;;;;;6.00;4.65;;;29.50;68.30;;;;;;5093464;28;20043;-65
2023/06/17 14:06:25;;;;;;;6.93;5.50;;;29.50;67.60;;;;;;5093167;28;20510;-65
2023/06/17 14:09:29;;;;;;;5.70;4.43;;;29.50;67.80;;;;;;5092497;28;20588;-67
2023/06/17 14:12:34;;;;;;;5.63;4.20;;;29.60;67.60;;;;;;5091135;28;20052;-73
2023/06/17 14:15:38;;;;;;;6.82;4.90;;;29.60;67.60;;;;;;5092898;28;20387;-71
2023/06/17 14:18:42;;;;;;;6.70;4.85;;;29.60;67.70;;;;;;5091889;28;20041;-71
2023/06/17 14:21:59;;;;;;;6.15;4.22;;;29.60;66.90;;;;;;5092581;28;20044;-71
2023/06/17 14:25:07;;;;;;;6.57;5.78;;;29.60;66.60;;;;;;5092913;28;20114;-71
2023/06/17 14:28:11;;;;;;;8.00;4.78;;;29.60;66.50;;;;;;5092479;28;20032;-72
2023/06/17 14:31:15;;;;;;;5.35;3.97;;;29.60;66.70;;;;;;5092735;28;20035;-70
2023/06/17 14:34:19;;;;;;;5.07;4.43;;;29.60;68.10;;;;;;5092704;28;20063;-71
2023/06/17 14:37:23;;;;;;;7.25;4.57;;;29.60;68.50;;;;;;5092369;28;20032;-72
2023/06/17 14:40:27;;;;;;;8.73;5.03;;;29.50;66.80;;;;;;5092068;28;20040;-71
2023/06/17 14:43:31;;;;;;;7.57;4.93;;;29.40;66.70;;;;;;5092439;28;20036;-71
2023/06/17 14:46:35;;;;;;;6.57;4.72;;;29.40;67.10;;;;;;5092822;28;20051;-71
2023/06/17 14:49:38;;;;;;;8.45;7.28;;;29.40;67.50;;;;;;5091241;28;20047;-70
2023/06/17 14:52:47;;;;;;;11.38;9.27;;;29.40;68.00;;;;;;5092387;28;20044;-71
2023/06/17 14:56:06;;;;;;;10.23;5.88;;;29.40;68.20;;;;;;5092424;28;20396;-72
2023/06/17 14:59:10;;;;;;;9.13;5.28;;;29.40;67.60;;;;;;5092089;28;20047;-71
2023/06/17 15:02:26;;;;;;;12.23;5.53;;;29.40;66.70;;;;;;5091320;28;20491;-74
2023/06/17 15:05:35;;;;;;;10.85;5.20;;;29.30;65.60;;;;;;5092182;28;20110;-72
2023/06/17 15:08:38;;;;;;;5.95;4.57;;;29.30;65.00;;;;;;5091120;28;20047;-73
2023/06/17 15:11:42;;;;;;;13.20;5.82;;;29.20;64.60;;;;;;5091689;28;20376;-70
2023/06/17 15:14:48;;;;;;;6.80;5.28;;;29.20;64.80;;;;;;5091556;28;20392;-71
2023/06/17 15:17:52;;;;;;;9.75;5.63;;;29.10;62.80;;;;;;5089480;28;20059;-69
2023/06/17 15:20:56;;;;;;;11.45;5.55;;;29.10;63.20;;;;;;5091047;28;20052;-70
2023/06/17 15:24:01;;;;;;;20.48;13.25;;;29.10;63.10;;;;;;5090929;28;20043;-72
2023/06/17 15:27:06;;;;;;;12.00;7.80;;;29.10;62.80;;;;;;5090735;28;20051;-69
2023/06/17 15:30:11;;;;;;;10.52;6.32;;;29.10;63.00;;;;;;5091427;28;20042;-71
2023/06/17 15:33:15;;;;;;;9.05;4.72;;;29.10;63.10;;;;;;5091196;28;20546;-71
2023/06/17 15:36:19;;;;;;;8.75;5.18;;;29.00;62.40;;;;;;5091610;28;20043;-69
2023/06/17 15:39:25;;;;;;;13.52;9.32;;;29.00;63.40;;;;;;5091239;28;20036;-71
2023/06/17 15:42:29;;;;;;;17.17;10.88;;;29.00;64.00;;;;;;5091365;28;20051;-71
2023/06/17 15:45:33;;;;;;;12.35;7.72;;;29.00;63.90;;;;;;5091244;28;20360;-71
2023/06/17 15:48:37;;;;;;;11.88;6.55;;;29.00;63.60;;;;;;5090762;28;20039;-69
2023/06/17 15:51:40;;;;;;;7.60;5.90;;;29.00;64.40;;;;;;5090971;28;20043;-72
2023/06/17 15:54:44;;;;;;;11.48;5.55;;;29.00;64.20;;;;;;5090181;28;20028;-70
2023/06/17 15:57:48;;;;;;;14.75;5.28;;;29.00;64.10;;;;;;5091115;28;20035;-71